sensor_id;sensor_type;location;lat;lon;timestamp;temperature;humidity
64817;DHT22;69411;45.656;11.740;2024-01-27T00:01:45;4.00;76.50
64817;DHT22;69411;45.656;11.740;2024-01-27T00:04:11;4.00;76.50
64817;DHT22;69411;45.656;11.740;2024-01-27T00:06:36;4.00;76.60
64817;DHT22;69411;45.656;11.740;2024-01-27T00:09:02;3.90;76.70
64817;DHT22;69411;45.656;11.740;2024-01-27T00:11:29;3.90;76.70
64817;DHT22;69411;45.656;11.740;2024-01-27T00:13:55;3.90;76.50
64817;DHT22;69411;45.656;11.740;2024-01-27T00:16:22;3.80;76.00
64817;DHT22;69411;45.656;11.740;2024-01-27T00:18:47;3.80;76.20
64817;DHT22;69411;45.656;11.740;2024-01-27T00:21:13;3.80;76.10
64817;DHT22;69411;45.656;11.740;2024-01-27T00:23:39;3.80;76.30
64817;DHT22;69411;45.656;11.740;2024-01-27T00:26:06;3.70;76.20
64817;DHT22;69411;45.656;11.740;2024-01-27T00:28:32;3.70;76.40
64817;DHT22;69411;45.656;11.740;2024-01-27T00:30:58;3.70;76.40
64817;DHT22;69411;45.656;11.740;2024-01-27T00:33:24;3.60;75.20
64817;DHT22;69411;45.656;11.740;2024-01-27T00:35:50;3.50;75.50
64817;DHT22;69411;45.656;11.740;2024-01-27T00:38:17;3.40;75.80
64817;DHT22;69411;45.656;11.740;2024-01-27T00:40:43;3.40;76.00
64817;DHT22;69411;45.656;11.740;2024-01-27T00:43:09;3.40;76.30
64817;DHT22;69411;45.656;11.740;2024-01-27T00:45:35;3.50;76.60
64817;DHT22;69411;45.656;11.740;2024-01-27T00:48:01;3.50;76.80
64817;DHT22;69411;45.656;11.740;2024-01-27T00:50:27;3.50;76.70
64817;DHT22;69411;45.656;11.740;2024-01-27T00:52:53;3.50;76.90
64817;DHT22;69411;45.656;11.740;2024-01-27T00:55:19;3.50;76.80
64817;DHT22;69411;45.656;11.740;2024-01-27T00:57:45;3.60;77.00
64817;DHT22;69411;45.656;11.740;2024-01-27T01:00:11;3.60;76.80
64817;DHT22;69411;45.656;11.740;2024-01-27T01:02:38;3.50;77.00
64817;DHT22;69411;45.656;11.740;2024-01-27T01:05:04;3.60;76.90
64817;DHT22;69411;45.656;11.740;2024-01-27T01:07:31;3.60;77.00
64817;DHT22;69411;45.656;11.740;2024-01-27T01:09:57;3.60;77.50
64817;DHT22;69411;45.656;11.740;2024-01-27T01:12:23;3.60;77.50
64817;DHT22;69411;45.656;11.740;2024-01-27T01:14:49;3.60;77.70
64817;DHT22;69411;45.656;11.740;2024-01-27T01:17:15;3.60;78.20
64817;DHT22;69411;45.656;11.740;2024-01-27T01:19:41;3.60;78.40
64817;DHT22;69411;45.656;11.740;2024-01-27T01:22:07;3.60;78.10
64817;DHT22;69411;45.656;11.740;2024-01-27T01:24:33;3.70;78.20
64817;DHT22;69411;45.656;11.740;2024-01-27T01:26:59;3.60;78.00
64817;DHT22;69411;45.656;11.740;2024-01-27T01:29:26;3.60;78.50
64817;DHT22;69411;45.656;11.740;2024-01-27T01:31:53;3.60;78.60
64817;DHT22;69411;45.656;11.740;2024-01-27T01:34:19;3.50;78.70
64817;DHT22;69411;45.656;11.740;2024-01-27T01:36:45;3.50;78.70
64817;DHT22;69411;45.656;11.740;2024-01-27T01:39:11;3.40;78.60
64817;DHT22;69411;45.656;11.740;2024-01-27T01:41:41;3.40;78.20
64817;DHT22;69411;45.656;11.740;2024-01-27T01:44:07;3.40;78.10
64817;DHT22;69411;45.656;11.740;2024-01-27T01:46:33;3.30;78.20
64817;DHT22;69411;45.656;11.740;2024-01-27T01:49:00;3.30;77.80
64817;DHT22;69411;45.656;11.740;2024-01-27T01:51:26;3.30;77.80
64817;DHT22;69411;45.656;11.740;2024-01-27T01:53:57;3.30;77.90
64817;DHT22;69411;45.656;11.740;2024-01-27T01:56:24;3.30;78.30
64817;DHT22;69411;45.656;11.740;2024-01-27T01:58:50;3.30;78.30
64817;DHT22;69411;45.656;11.740;2024-01-27T02:01:17;3.20;78.10
64817;DHT22;69411;45.656;11.740;2024-01-27T02:03:57;3.20;78.10
64817;DHT22;69411;45.656;11.740;2024-01-27T02:06:23;3.20;77.80
64817;DHT22;69411;45.656;11.740;2024-01-27T02:08:50;3.20;78.00
64817;DHT22;69411;45.656;11.740;2024-01-27T02:11:16;3.10;78.20
64817;DHT22;69411;45.656;11.740;2024-01-27T02:13:42;3.10;78.10
64817;DHT22;69411;45.656;11.740;2024-01-27T02:16:08;3.10;77.70
64817;DHT22;69411;45.656;11.740;2024-01-27T02:18:34;3.10;77.60
64817;DHT22;69411;45.656;11.740;2024-01-27T02:21:00;3.10;77.20
64817;DHT22;69411;45.656;11.740;2024-01-27T02:23:26;3.10;76.90
64817;DHT22;69411;45.656;11.740;2024-01-27T02:25:52;3.10;77.10
64817;DHT22;69411;45.656;11.740;2024-01-27T02:28:18;3.10;77.00
64817;DHT22;69411;45.656;11.740;2024-01-27T02:30:44;3.00;76.70
64817;DHT22;69411;45.656;11.740;2024-01-27T02:33:10;3.00;76.60
64817;DHT22;69411;45.656;11.740;2024-01-27T02:35:36;3.00;76.60
64817;DHT22;69411;45.656;11.740;2024-01-27T02:38:02;3.00;76.20
64817;DHT22;69411;45.656;11.740;2024-01-27T02:40:28;3.00;76.20
64817;DHT22;69411;45.656;11.740;2024-01-27T02:42:54;2.90;76.00
64817;DHT22;69411;45.656;11.740;2024-01-27T02:45:20;2.90;76.20
64817;DHT22;69411;45.656;11.740;2024-01-27T02:47:46;2.90;76.10
64817;DHT22;69411;45.656;11.740;2024-01-27T02:50:12;2.90;76.00
64817;DHT22;69411;45.656;11.740;2024-01-27T02:52:38;2.90;75.70
64817;DHT22;69411;45.656;11.740;2024-01-27T02:55:05;2.90;75.50
64817;DHT22;69411;45.656;11.740;2024-01-27T02:57:31;2.90;75.40
64817;DHT22;69411;45.656;11.740;2024-01-27T02:59:57;2.90;75.60
64817;DHT22;69411;45.656;11.740;2024-01-27T03:02:23;2.90;75.90
64817;DHT22;69411;45.656;11.740;2024-01-27T03:04:49;2.90;75.90
64817;DHT22;69411;45.656;11.740;2024-01-27T03:07:14;2.90;75.60
64817;DHT22;69411;45.656;11.740;2024-01-27T03:09:40;2.90;75.60
64817;DHT22;69411;45.656;11.740;2024-01-27T03:12:07;2.90;75.60
64817;DHT22;69411;45.656;11.740;2024-01-27T03:14:33;2.90;75.60
64817;DHT22;69411;45.656;11.740;2024-01-27T03:16:59;2.90;75.50
64817;DHT22;69411;45.656;11.740;2024-01-27T03:19:25;2.90;75.30
64817;DHT22;69411;45.656;11.740;2024-01-27T03:21:51;2.90;75.00
64817;DHT22;69411;45.656;11.740;2024-01-27T03:24:17;2.90;75.30
64817;DHT22;69411;45.656;11.740;2024-01-27T03:26:43;2.80;75.40
64817;DHT22;69411;45.656;11.740;2024-01-27T03:29:09;2.80;75.30
64817;DHT22;69411;45.656;11.740;2024-01-27T03:31:35;2.70;75.20
64817;DHT22;69411;45.656;11.740;2024-01-27T03:34:01;2.70;75.40
64817;DHT22;69411;45.656;11.740;2024-01-27T03:36:28;2.70;75.60
64817;DHT22;69411;45.656;11.740;2024-01-27T03:38:55;2.70;75.60
64817;DHT22;69411;45.656;11.740;2024-01-27T03:41:21;2.60;75.60
64817;DHT22;69411;45.656;11.740;2024-01-27T03:43:47;2.70;75.60
64817;DHT22;69411;45.656;11.740;2024-01-27T03:46:13;2.60;75.50
64817;DHT22;69411;45.656;11.740;2024-01-27T03:48:39;2.60;75.60
64817;DHT22;69411;45.656;11.740;2024-01-27T03:51:05;2.60;75.90
64817;DHT22;69411;45.656;11.740;2024-01-27T03:53:31;2.60;76.00
64817;DHT22;69411;45.656;11.740;2024-01-27T03:55:57;2.60;76.20
64817;DHT22;69411;45.656;11.740;2024-01-27T03:58:30;2.60;76.30
64817;DHT22;69411;45.656;11.740;2024-01-27T04:00:57;2.60;76.50
64817;DHT22;69411;45.656;11.740;2024-01-27T04:03:23;2.50;76.30
64817;DHT22;69411;45.656;11.740;2024-01-27T04:05:49;2.50;76.10
64817;DHT22;69411;45.656;11.740;2024-01-27T04:08:15;2.40;76.20
64817;DHT22;69411;45.656;11.740;2024-01-27T04:10:41;2.40;76.30
64817;DHT22;69411;45.656;11.740;2024-01-27T04:13:07;2.50;76.40
64817;DHT22;69411;45.656;11.740;2024-01-27T04:15:34;2.50;76.50
64817;DHT22;69411;45.656;11.740;2024-01-27T04:18:05;2.50;76.40
64817;DHT22;69411;45.656;11.740;2024-01-27T04:20:35;2.50;76.40
64817;DHT22;69411;45.656;11.740;2024-01-27T04:23:01;2.50;76.30
64817;DHT22;69411;45.656;11.740;2024-01-27T04:25:28;2.50;76.50
64817;DHT22;69411;45.656;11.740;2024-01-27T04:27:54;2.50;76.90
64817;DHT22;69411;45.656;11.740;2024-01-27T04:30:20;2.40;76.90
64817;DHT22;69411;45.656;11.740;2024-01-27T04:32:46;2.40;76.90
64817;DHT22;69411;45.656;11.740;2024-01-27T04:35:14;2.40;76.80
64817;DHT22;69411;45.656;11.740;2024-01-27T04:37:40;2.40;76.80
64817;DHT22;69411;45.656;11.740;2024-01-27T04:40:07;2.30;76.70
64817;DHT22;69411;45.656;11.740;2024-01-27T04:42:34;2.20;76.30
64817;DHT22;69411;45.656;11.740;2024-01-27T04:45:00;2.20;76.40
64817;DHT22;69411;45.656;11.740;2024-01-27T04:47:26;2.10;76.60
64817;DHT22;69411;45.656;11.740;2024-01-27T04:49:53;2.10;76.60
64817;DHT22;69411;45.656;11.740;2024-01-27T04:52:19;2.00;76.50
64817;DHT22;69411;45.656;11.740;2024-01-27T04:54:45;2.00;76.50
64817;DHT22;69411;45.656;11.740;2024-01-27T04:57:11;1.90;75.30
64817;DHT22;69411;45.656;11.740;2024-01-27T04:59:37;1.90;75.70
64817;DHT22;69411;45.656;11.740;2024-01-27T05:02:03;1.90;75.80
64817;DHT22;69411;45.656;11.740;2024-01-27T05:04:29;1.90;76.20
64817;DHT22;69411;45.656;11.740;2024-01-27T05:06:55;1.90;76.40
64817;DHT22;69411;45.656;11.740;2024-01-27T05:09:21;1.90;76.40
64817;DHT22;69411;45.656;11.740;2024-01-27T05:11:47;2.00;76.30
64817;DHT22;69411;45.656;11.740;2024-01-27T05:14:14;2.00;75.90
64817;DHT22;69411;45.656;11.740;2024-01-27T05:16:40;2.00;75.80
64817;DHT22;69411;45.656;11.740;2024-01-27T05:19:06;1.90;75.70
64817;DHT22;69411;45.656;11.740;2024-01-27T05:21:32;2.00;75.80
64817;DHT22;69411;45.656;11.740;2024-01-27T05:23:58;2.00;75.70
64817;DHT22;69411;45.656;11.740;2024-01-27T05:26:24;2.00;75.70
64817;DHT22;69411;45.656;11.740;2024-01-27T05:28:50;2.10;75.80
64817;DHT22;69411;45.656;11.740;2024-01-27T05:31:16;2.10;75.70
64817;DHT22;69411;45.656;11.740;2024-01-27T05:33:43;2.10;75.60
64817;DHT22;69411;45.656;11.740;2024-01-27T05:36:08;2.10;75.80
64817;DHT22;69411;45.656;11.740;2024-01-27T05:38:34;2.10;75.50
64817;DHT22;69411;45.656;11.740;2024-01-27T05:41:01;2.10;75.60
64817;DHT22;69411;45.656;11.740;2024-01-27T05:43:27;2.10;75.50
64817;DHT22;69411;45.656;11.740;2024-01-27T05:45:53;2.10;74.40
64817;DHT22;69411;45.656;11.740;2024-01-27T05:48:19;2.10;74.30
64817;DHT22;69411;45.656;11.740;2024-01-27T05:50:58;2.10;74.90
64817;DHT22;69411;45.656;11.740;2024-01-27T05:53:25;2.10;74.60
64817;DHT22;69411;45.656;11.740;2024-01-27T05:55:51;2.00;75.00
64817;DHT22;69411;45.656;11.740;2024-01-27T05:58:18;2.00;74.90
64817;DHT22;69411;45.656;11.740;2024-01-27T06:00:47;2.00;75.20
64817;DHT22;69411;45.656;11.740;2024-01-27T06:03:13;2.00;75.10
64817;DHT22;69411;45.656;11.740;2024-01-27T06:05:41;2.00;75.10
64817;DHT22;69411;45.656;11.740;2024-01-27T06:08:08;2.00;75.10
64817;DHT22;69411;45.656;11.740;2024-01-27T06:10:34;2.00;75.20
64817;DHT22;69411;45.656;11.740;2024-01-27T06:13:03;2.00;75.20
64817;DHT22;69411;45.656;11.740;2024-01-27T06:15:29;2.00;75.10
64817;DHT22;69411;45.656;11.740;2024-01-27T06:17:55;2.00;75.00
64817;DHT22;69411;45.656;11.740;2024-01-27T06:20:21;1.90;75.10
64817;DHT22;69411;45.656;11.740;2024-01-27T06:22:47;2.00;74.80
64817;DHT22;69411;45.656;11.740;2024-01-27T06:25:13;1.90;74.70
64817;DHT22;69411;45.656;11.740;2024-01-27T06:27:40;1.90;74.90
64817;DHT22;69411;45.656;11.740;2024-01-27T06:30:08;1.90;74.90
64817;DHT22;69411;45.656;11.740;2024-01-27T06:32:35;1.90;73.20
64817;DHT22;69411;45.656;11.740;2024-01-27T06:35:01;1.80;73.50
64817;DHT22;69411;45.656;11.740;2024-01-27T06:37:27;1.70;73.90
64817;DHT22;69411;45.656;11.740;2024-01-27T06:39:53;1.70;74.60
64817;DHT22;69411;45.656;11.740;2024-01-27T06:42:19;1.70;74.70
64817;DHT22;69411;45.656;11.740;2024-01-27T06:44:45;1.70;74.70
64817;DHT22;69411;45.656;11.740;2024-01-27T06:47:11;1.70;75.00
64817;DHT22;69411;45.656;11.740;2024-01-27T06:49:37;1.70;74.80
64817;DHT22;69411;45.656;11.740;2024-01-27T06:52:03;1.70;74.70
64817;DHT22;69411;45.656;11.740;2024-01-27T06:54:29;1.70;75.10
64817;DHT22;69411;45.656;11.740;2024-01-27T06:56:55;1.70;75.10
64817;DHT22;69411;45.656;11.740;2024-01-27T06:59:21;1.80;75.20
64817;DHT22;69411;45.656;11.740;2024-01-27T07:01:47;1.80;75.30
64817;DHT22;69411;45.656;11.740;2024-01-27T07:04:17;1.80;75.30
64817;DHT22;69411;45.656;11.740;2024-01-27T07:06:43;1.80;74.50
64817;DHT22;69411;45.656;11.740;2024-01-27T07:09:10;1.80;74.90
64817;DHT22;69411;45.656;11.740;2024-01-27T07:11:36;1.90;74.70
64817;DHT22;69411;45.656;11.740;2024-01-27T07:14:05;1.90;74.60
64817;DHT22;69411;45.656;11.740;2024-01-27T07:16:32;1.90;74.70
64817;DHT22;69411;45.656;11.740;2024-01-27T07:18:59;1.90;73.90
64817;DHT22;69411;45.656;11.740;2024-01-27T07:21:26;1.90;74.50
64817;DHT22;69411;45.656;11.740;2024-01-27T07:23:54;1.90;74.90
64817;DHT22;69411;45.656;11.740;2024-01-27T07:26:20;1.90;75.00
64817;DHT22;69411;45.656;11.740;2024-01-27T07:28:46;1.90;74.80
64817;DHT22;69411;45.656;11.740;2024-01-27T07:31:13;2.00;74.70
64817;DHT22;69411;45.656;11.740;2024-01-27T07:33:39;2.00;74.80
64817;DHT22;69411;45.656;11.740;2024-01-27T07:38:34;2.20;75.50
64817;DHT22;69411;45.656;11.740;2024-01-27T07:41:00;2.30;75.30
64817;DHT22;69411;45.656;11.740;2024-01-27T07:43:26;2.40;75.30
64817;DHT22;69411;45.656;11.740;2024-01-27T07:45:52;2.40;75.10
64817;DHT22;69411;45.656;11.740;2024-01-27T07:48:19;2.40;75.60
64817;DHT22;69411;45.656;11.740;2024-01-27T07:50:45;2.40;75.40
64817;DHT22;69411;45.656;11.740;2024-01-27T07:53:15;2.40;75.50
64817;DHT22;69411;45.656;11.740;2024-01-27T07:55:41;2.30;76.00
64817;DHT22;69411;45.656;11.740;2024-01-27T07:58:07;2.30;76.10
64817;DHT22;69411;45.656;11.740;2024-01-27T08:00:33;2.40;76.30
64817;DHT22;69411;45.656;11.740;2024-01-27T08:02:59;2.40;76.80
64817;DHT22;69411;45.656;11.740;2024-01-27T08:05:25;2.40;77.00
64817;DHT22;69411;45.656;11.740;2024-01-27T08:07:51;2.50;76.60
64817;DHT22;69411;45.656;11.740;2024-01-27T08:10:17;2.60;77.00
64817;DHT22;69411;45.656;11.740;2024-01-27T08:12:43;2.60;77.30
64817;DHT22;69411;45.656;11.740;2024-01-27T08:15:09;2.60;77.50
64817;DHT22;69411;45.656;11.740;2024-01-27T08:17:35;2.70;77.40
64817;DHT22;69411;45.656;11.740;2024-01-27T08:20:01;2.80;77.60
64817;DHT22;69411;45.656;11.740;2024-01-27T08:22:28;2.80;77.50
64817;DHT22;69411;45.656;11.740;2024-01-27T08:24:54;2.90;77.20
64817;DHT22;69411;45.656;11.740;2024-01-27T08:27:21;2.90;77.00
64817;DHT22;69411;45.656;11.740;2024-01-27T08:29:47;3.00;77.00
64817;DHT22;69411;45.656;11.740;2024-01-27T08:32:13;2.90;76.90
64817;DHT22;69411;45.656;11.740;2024-01-27T08:34:39;2.90;77.10
64817;DHT22;69411;45.656;11.740;2024-01-27T08:37:17;3.00;77.50
64817;DHT22;69411;45.656;11.740;2024-01-27T08:39:43;2.90;76.50
64817;DHT22;69411;45.656;11.740;2024-01-27T08:42:09;2.90;77.00
64817;DHT22;69411;45.656;11.740;2024-01-27T08:44:35;2.80;77.60
64817;DHT22;69411;45.656;11.740;2024-01-27T08:47:01;2.80;77.80
64817;DHT22;69411;45.656;11.740;2024-01-27T08:49:27;2.90;77.50
64817;DHT22;69411;45.656;11.740;2024-01-27T08:51:53;2.90;77.50
64817;DHT22;69411;45.656;11.740;2024-01-27T08:54:22;2.90;77.70
64817;DHT22;69411;45.656;11.740;2024-01-27T08:56:48;3.00;77.20
64817;DHT22;69411;45.656;11.740;2024-01-27T08:59:14;3.00;77.10
64817;DHT22;69411;45.656;11.740;2024-01-27T09:01:41;3.10;77.20
64817;DHT22;69411;45.656;11.740;2024-01-27T09:04:08;3.10;77.20
64817;DHT22;69411;45.656;11.740;2024-01-27T09:06:35;3.10;77.50
64817;DHT22;69411;45.656;11.740;2024-01-27T09:09:01;3.20;77.70
64817;DHT22;69411;45.656;11.740;2024-01-27T09:11:27;3.30;77.80
64817;DHT22;69411;45.656;11.740;2024-01-27T09:13:56;3.30;77.50
64817;DHT22;69411;45.656;11.740;2024-01-27T09:16:22;3.40;77.70
64817;DHT22;69411;45.656;11.740;2024-01-27T09:18:49;3.40;77.80
64817;DHT22;69411;45.656;11.740;2024-01-27T09:21:16;3.50;78.00
64817;DHT22;69411;45.656;11.740;2024-01-27T09:23:46;3.60;77.90
64817;DHT22;69411;45.656;11.740;2024-01-27T09:26:13;3.70;77.60
64817;DHT22;69411;45.656;11.740;2024-01-27T09:28:41;3.70;77.50
64817;DHT22;69411;45.656;11.740;2024-01-27T09:31:11;3.90;77.50
64817;DHT22;69411;45.656;11.740;2024-01-27T09:33:37;3.90;77.50
64817;DHT22;69411;45.656;11.740;2024-01-27T09:36:03;4.00;77.30
64817;DHT22;69411;45.656;11.740;2024-01-27T09:38:29;4.10;77.10
64817;DHT22;69411;45.656;11.740;2024-01-27T09:40:56;4.20;77.30
64817;DHT22;69411;45.656;11.740;2024-01-27T09:43:23;4.20;77.20
64817;DHT22;69411;45.656;11.740;2024-01-27T09:45:50;4.40;77.10
64817;DHT22;69411;45.656;11.740;2024-01-27T09:48:16;4.40;77.00
64817;DHT22;69411;45.656;11.740;2024-01-27T09:50:45;4.40;77.00
64817;DHT22;69411;45.656;11.740;2024-01-27T09:53:11;4.50;77.10
64817;DHT22;69411;45.656;11.740;2024-01-27T09:55:38;4.60;76.90
64817;DHT22;69411;45.656;11.740;2024-01-27T09:58:05;4.60;76.90
64817;DHT22;69411;45.656;11.740;2024-01-27T10:00:32;4.70;77.10
64817;DHT22;69411;45.656;11.740;2024-01-27T10:02:59;4.80;77.10
64817;DHT22;69411;45.656;11.740;2024-01-27T10:05:25;4.80;76.80
64817;DHT22;69411;45.656;11.740;2024-01-27T10:07:52;4.90;76.70
64817;DHT22;69411;45.656;11.740;2024-01-27T10:10:18;4.90;76.60
64817;DHT22;69411;45.656;11.740;2024-01-27T10:12:45;5.00;76.60
64817;DHT22;69411;45.656;11.740;2024-01-27T10:15:22;5.00;76.80
64817;DHT22;69411;45.656;11.740;2024-01-27T10:17:49;5.20;77.00
64817;DHT22;69411;45.656;11.740;2024-01-27T10:20:15;5.20;77.20
64817;DHT22;69411;45.656;11.740;2024-01-27T10:22:44;5.30;77.00
64817;DHT22;69411;45.656;11.740;2024-01-27T10:25:11;5.40;76.60
64817;DHT22;69411;45.656;11.740;2024-01-27T10:27:37;5.40;76.30
64817;DHT22;69411;45.656;11.740;2024-01-27T10:30:05;5.50;76.20
64817;DHT22;69411;45.656;11.740;2024-01-27T10:32:33;5.60;76.10
64817;DHT22;69411;45.656;11.740;2024-01-27T10:35:07;5.60;76.30
64817;DHT22;69411;45.656;11.740;2024-01-27T10:37:39;5.60;76.00
64817;DHT22;69411;45.656;11.740;2024-01-27T10:40:07;5.60;75.80
64817;DHT22;69411;45.656;11.740;2024-01-27T10:42:38;5.60;75.70
64817;DHT22;69411;45.656;11.740;2024-01-27T10:45:05;5.70;75.90
64817;DHT22;69411;45.656;11.740;2024-01-27T10:47:32;5.70;76.10
64817;DHT22;69411;45.656;11.740;2024-01-27T10:49:59;5.70;76.30
64817;DHT22;69411;45.656;11.740;2024-01-27T10:52:31;5.80;75.90
64817;DHT22;69411;45.656;11.740;2024-01-27T10:55:02;5.80;76.00
64817;DHT22;69411;45.656;11.740;2024-01-27T10:57:30;5.90;76.40
64817;DHT22;69411;45.656;11.740;2024-01-27T10:59:57;5.90;76.40
64817;DHT22;69411;45.656;11.740;2024-01-27T11:02:24;6.00;76.70
64817;DHT22;69411;45.656;11.740;2024-01-27T11:04:51;6.10;76.50
64817;DHT22;69411;45.656;11.740;2024-01-27T11:07:20;6.20;76.50
64817;DHT22;69411;45.656;11.740;2024-01-27T11:09:49;6.30;76.20
64817;DHT22;69411;45.656;11.740;2024-01-27T11:12:21;6.30;75.90
64817;DHT22;69411;45.656;11.740;2024-01-27T11:15:14;6.40;75.20
64817;DHT22;69411;45.656;11.740;2024-01-27T11:17:41;6.40;75.60
64817;DHT22;69411;45.656;11.740;2024-01-27T11:20:11;6.50;75.30
64817;DHT22;69411;45.656;11.740;2024-01-27T11:22:37;6.50;75.30
64817;DHT22;69411;45.656;11.740;2024-01-27T11:27:43;6.60;75.00
64817;DHT22;69411;45.656;11.740;2024-01-27T11:30:26;6.60;75.10
64817;DHT22;69411;45.656;11.740;2024-01-27T11:33:00;6.70;75.00
64817;DHT22;69411;45.656;11.740;2024-01-27T11:35:26;6.70;75.30
64817;DHT22;69411;45.656;11.740;2024-01-27T11:37:54;6.80;75.20
64817;DHT22;69411;45.656;11.740;2024-01-27T11:40:23;6.80;75.30
64817;DHT22;69411;45.656;11.740;2024-01-27T11:42:56;6.90;75.30
64817;DHT22;69411;45.656;11.740;2024-01-27T11:45:25;6.90;75.10
64817;DHT22;69411;45.656;11.740;2024-01-27T11:47:51;6.90;75.30
64817;DHT22;69411;45.656;11.740;2024-01-27T11:50:18;7.00;75.50
64817;DHT22;69411;45.656;11.740;2024-01-27T11:52:44;7.00;75.30
64817;DHT22;69411;45.656;11.740;2024-01-27T11:55:10;7.10;75.20
64817;DHT22;69411;45.656;11.740;2024-01-27T11:57:36;7.10;75.10
64817;DHT22;69411;45.656;11.740;2024-01-27T12:00:03;7.10;75.00
64817;DHT22;69411;45.656;11.740;2024-01-27T12:02:29;7.20;75.20
64817;DHT22;69411;45.656;11.740;2024-01-27T12:04:56;7.20;75.40
64817;DHT22;69411;45.656;11.740;2024-01-27T12:07:22;7.20;75.60
64817;DHT22;69411;45.656;11.740;2024-01-27T12:09:51;7.30;75.40
64817;DHT22;69411;45.656;11.740;2024-01-27T12:12:17;7.30;75.30
64817;DHT22;69411;45.656;11.740;2024-01-27T12:14:48;7.40;75.30
64817;DHT22;69411;45.656;11.740;2024-01-27T12:17:14;7.40;75.30
64817;DHT22;69411;45.656;11.740;2024-01-27T12:19:49;7.40;75.50
64817;DHT22;69411;45.656;11.740;2024-01-27T12:22:22;7.40;75.10
64817;DHT22;69411;45.656;11.740;2024-01-27T12:24:48;7.40;75.40
64817;DHT22;69411;45.656;11.740;2024-01-27T12:27:16;7.50;75.50
64817;DHT22;69411;45.656;11.740;2024-01-27T12:29:43;7.50;75.60
64817;DHT22;69411;45.656;11.740;2024-01-27T12:32:12;7.50;75.70
64817;DHT22;69411;45.656;11.740;2024-01-27T12:34:42;7.60;76.00
64817;DHT22;69411;45.656;11.740;2024-01-27T12:37:11;7.60;75.80
64817;DHT22;69411;45.656;11.740;2024-01-27T12:39:42;7.60;75.70
64817;DHT22;69411;45.656;11.740;2024-01-27T12:42:08;7.70;75.60
64817;DHT22;69411;45.656;11.740;2024-01-27T12:44:35;7.80;75.60
64817;DHT22;69411;45.656;11.740;2024-01-27T12:47:00;7.80;75.60
64817;DHT22;69411;45.656;11.740;2024-01-27T12:49:27;7.90;75.50
64817;DHT22;69411;45.656;11.740;2024-01-27T12:51:56;8.00;75.50
64817;DHT22;69411;45.656;11.740;2024-01-27T12:54:22;8.00;75.40
64817;DHT22;69411;45.656;11.740;2024-01-27T12:56:48;8.00;74.80
64817;DHT22;69411;45.656;11.740;2024-01-27T12:59:14;8.10;74.90
64817;DHT22;69411;45.656;11.740;2024-01-27T13:01:41;8.10;75.10
64817;DHT22;69411;45.656;11.740;2024-01-27T13:04:07;8.10;75.30
64817;DHT22;69411;45.656;11.740;2024-01-27T13:06:33;8.30;75.20
64817;DHT22;69411;45.656;11.740;2024-01-27T13:08:59;8.30;75.20
64817;DHT22;69411;45.656;11.740;2024-01-27T13:11:25;8.40;75.00
64817;DHT22;69411;45.656;11.740;2024-01-27T13:13:51;8.40;75.30
64817;DHT22;69411;45.656;11.740;2024-01-27T13:16:17;8.40;75.80
64817;DHT22;69411;45.656;11.740;2024-01-27T13:18:43;8.40;75.90
64817;DHT22;69411;45.656;11.740;2024-01-27T13:21:11;8.40;76.50
64817;DHT22;69411;45.656;11.740;2024-01-27T13:23:37;8.50;76.10
64817;DHT22;69411;45.656;11.740;2024-01-27T13:26:03;8.60;76.80
64817;DHT22;69411;45.656;11.740;2024-01-27T13:28:30;8.60;76.50
64817;DHT22;69411;45.656;11.740;2024-01-27T13:30:55;8.70;76.30
64817;DHT22;69411;45.656;11.740;2024-01-27T13:33:22;8.80;76.00
64817;DHT22;69411;45.656;11.740;2024-01-27T13:35:48;8.90;75.70
64817;DHT22;69411;45.656;11.740;2024-01-27T13:38:14;9.00;75.60
64817;DHT22;69411;45.656;11.740;2024-01-27T13:40:41;9.10;75.40
64817;DHT22;69411;45.656;11.740;2024-01-27T13:43:08;9.10;75.00
64817;DHT22;69411;45.656;11.740;2024-01-27T13:45:35;9.10;74.90
64817;DHT22;69411;45.656;11.740;2024-01-27T13:48:01;9.20;74.80
64817;DHT22;69411;45.656;11.740;2024-01-27T13:50:27;9.30;74.70
64817;DHT22;69411;45.656;11.740;2024-01-27T13:52:56;9.30;74.60
64817;DHT22;69411;45.656;11.740;2024-01-27T13:55:22;9.40;74.50
64817;DHT22;69411;45.656;11.740;2024-01-27T13:57:49;9.40;74.50
64817;DHT22;69411;45.656;11.740;2024-01-27T14:00:16;9.40;74.40
64817;DHT22;69411;45.656;11.740;2024-01-27T14:02:43;9.40;74.20
64817;DHT22;69411;45.656;11.740;2024-01-27T14:05:09;9.40;74.10
64817;DHT22;69411;45.656;11.740;2024-01-27T14:07:35;9.40;74.10
64817;DHT22;69411;45.656;11.740;2024-01-27T14:10:02;9.50;74.00
64817;DHT22;69411;45.656;11.740;2024-01-27T14:12:28;9.50;74.40
64817;DHT22;69411;45.656;11.740;2024-01-27T14:15:05;9.60;74.30
64817;DHT22;69411;45.656;11.740;2024-01-27T14:17:35;9.60;74.20
64817;DHT22;69411;45.656;11.740;2024-01-27T14:20:04;9.60;74.50
64817;DHT22;69411;45.656;11.740;2024-01-27T14:22:30;9.60;74.40
64817;DHT22;69411;45.656;11.740;2024-01-27T14:24:56;9.60;74.30
64817;DHT22;69411;45.656;11.740;2024-01-27T14:27:22;9.60;74.10
64817;DHT22;69411;45.656;11.740;2024-01-27T14:29:55;9.70;73.90
64817;DHT22;69411;45.656;11.740;2024-01-27T14:32:33;9.70;73.80
64817;DHT22;69411;45.656;11.740;2024-01-27T14:35:03;9.70;73.60
64817;DHT22;69411;45.656;11.740;2024-01-27T14:37:32;9.70;73.70
64817;DHT22;69411;45.656;11.740;2024-01-27T14:39:58;9.70;73.90
64817;DHT22;69411;45.656;11.740;2024-01-27T14:42:24;9.70;73.90
64817;DHT22;69411;45.656;11.740;2024-01-27T14:44:50;9.70;73.70
64817;DHT22;69411;45.656;11.740;2024-01-27T14:47:18;9.70;73.60
64817;DHT22;69411;45.656;11.740;2024-01-27T14:49:46;9.70;73.40
64817;DHT22;69411;45.656;11.740;2024-01-27T14:52:12;9.70;73.30
64817;DHT22;69411;45.656;11.740;2024-01-27T14:54:38;9.80;73.40
64817;DHT22;69411;45.656;11.740;2024-01-27T14:57:05;9.70;73.50
64817;DHT22;69411;45.656;11.740;2024-01-27T15:02:54;9.70;73.30
64817;DHT22;69411;45.656;11.740;2024-01-27T15:05:21;9.70;73.50
64817;DHT22;69411;45.656;11.740;2024-01-27T15:07:47;9.70;73.40
64817;DHT22;69411;45.656;11.740;2024-01-27T15:10:13;9.80;73.30
64817;DHT22;69411;45.656;11.740;2024-01-27T15:12:39;9.70;73.40
64817;DHT22;69411;45.656;11.740;2024-01-27T15:15:26;9.70;73.40
64817;DHT22;69411;45.656;11.740;2024-01-27T15:17:54;9.70;73.30
64817;DHT22;69411;45.656;11.740;2024-01-27T15:20:26;9.70;73.30
64817;DHT22;69411;45.656;11.740;2024-01-27T15:22:54;9.70;73.20
64817;DHT22;69411;45.656;11.740;2024-01-27T15:25:21;9.60;73.20
64817;DHT22;69411;45.656;11.740;2024-01-27T15:27:48;9.60;73.20
64817;DHT22;69411;45.656;11.740;2024-01-27T15:30:17;9.60;73.20
64817;DHT22;69411;45.656;11.740;2024-01-27T15:32:52;9.50;73.20
64817;DHT22;69411;45.656;11.740;2024-01-27T15:35:18;9.50;73.10
64817;DHT22;69411;45.656;11.740;2024-01-27T15:37:43;9.40;73.20